createdAt,value
2023-05-22T00:01:56.694Z,6.97
2023-05-22T00:04:23.935Z,8.53
2023-05-22T00:06:50.808Z,8.70
2023-05-22T00:09:17.895Z,9.70
2023-05-22T00:11:44.889Z,7.43
2023-05-22T00:14:13.450Z,6.57
2023-05-22T00:16:41.155Z,5.27
2023-05-22T00:19:13.292Z,4.73
2023-05-22T00:21:40.474Z,5.30
2023-05-22T00:24:07.431Z,6.10
2023-05-22T00:26:34.216Z,5.00
2023-05-22T00:29:01.334Z,6.23
2023-05-22T00:31:28.850Z,5.40
2023-05-22T00:33:55.898Z,5.63
2023-05-22T00:36:23.630Z,5.93
2023-05-22T00:38:50.895Z,5.33
2023-05-22T00:41:17.788Z,6.03
2023-05-22T00:43:46.413Z,5.73
2023-05-22T00:46:14.527Z,5.10
2023-05-22T00:48:41.548Z,5.60
2023-05-22T00:51:08.946Z,5.43
2023-05-22T00:53:37.110Z,5.70
2023-05-22T00:56:05.041Z,5.43
2023-05-22T00:58:31.905Z,5.87
2023-05-22T01:00:59.505Z,7.00
2023-05-22T01:03:27.460Z,6.13
2023-05-22T01:05:55.677Z,6.27
2023-05-22T01:08:22.833Z,7.87
2023-05-22T01:11:13.024Z,6.60
2023-05-22T01:13:39.795Z,6.50
2023-05-22T01:16:13.041Z,6.00
2023-05-22T01:19:01.169Z,5.97
2023-05-22T01:21:47.762Z,6.63
2023-05-22T01:24:46.019Z,7.47
2023-05-22T01:27:42.832Z,6.73
2023-05-22T01:30:28.844Z,6.50
2023-05-22T01:35:40.874Z,6.57
2023-05-22T01:38:09.066Z,6.10
2023-05-22T01:40:37.844Z,6.70
2023-05-22T01:43:05.053Z,6.13
2023-05-22T01:45:32.016Z,6.83
2023-05-22T01:47:59.051Z,6.63
2023-05-22T01:50:26.584Z,6.70
2023-05-22T01:53:20.110Z,7.83
2023-05-22T01:56:00.922Z,7.90
2023-05-22T01:58:52.757Z,6.77
2023-05-22T02:01:22.511Z,10.70
2023-05-22T02:03:56.525Z,7.40
2023-05-22T02:06:25.951Z,6.93
2023-05-22T02:08:53.959Z,7.47
2023-05-22T02:11:22.888Z,7.83
2023-05-22T02:13:50.143Z,8.20
2023-05-22T02:16:19.331Z,9.00
2023-05-22T02:18:46.585Z,10.93
2023-05-22T02:21:13.441Z,8.40
2023-05-22T02:23:40.835Z,6.83
2023-05-22T02:26:07.652Z,6.73
2023-05-22T02:28:34.506Z,7.40
2023-05-22T02:31:03.491Z,6.93
2023-05-22T02:33:30.885Z,7.20
2023-05-22T02:35:57.739Z,6.93
2023-05-22T02:38:24.526Z,7.63
2023-05-22T02:40:52.127Z,8.40
2023-05-22T02:43:18.961Z,8.37
2023-05-22T02:45:45.804Z,7.33
2023-05-22T02:48:13.170Z,8.10
2023-05-22T02:50:40.370Z,7.60
2023-05-22T02:53:08.422Z,7.03
2023-05-22T02:55:35.320Z,7.37
2023-05-22T02:58:02.931Z,6.37
2023-05-22T03:00:29.733Z,6.13
2023-05-22T03:02:57.209Z,7.27
2023-05-22T03:05:24.091Z,7.30
2023-05-22T03:07:52.871Z,7.63
2023-05-22T03:10:19.815Z,7.33
2023-05-22T03:12:46.659Z,7.27
2023-05-22T03:15:13.738Z,9.37
2023-05-22T03:17:42.151Z,8.97
2023-05-22T03:20:09.456Z,9.10
2023-05-22T03:22:36.345Z,9.93
2023-05-22T03:25:03.960Z,7.70
2023-05-22T03:27:30.771Z,8.67
2023-05-22T03:29:57.576Z,8.27
2023-05-22T03:32:24.417Z,8.33
2023-05-22T03:34:51.772Z,8.63
2023-05-22T03:37:18.609Z,7.13
2023-05-22T03:39:45.414Z,7.00
2023-05-22T03:42:22.270Z,9.13
2023-05-22T03:44:50.012Z,8.57
2023-05-22T03:47:17.609Z,10.20
2023-05-22T03:49:44.514Z,8.70
2023-05-22T03:52:11.493Z,8.40
2023-05-22T03:54:38.298Z,7.80
2023-05-22T03:57:05.859Z,9.33
2023-05-22T03:59:32.635Z,10.47
2023-05-22T04:02:01.018Z,9.80
2023-05-22T04:04:28.568Z,7.73
2023-05-22T04:06:58.158Z,10.23
2023-05-22T04:09:31.226Z,9.80
2023-05-22T04:11:58.775Z,8.73
2023-05-22T04:14:26.207Z,8.77
2023-05-22T04:16:53.342Z,10.17
2023-05-22T04:19:20.516Z,11.43
2023-05-22T04:21:47.601Z,12.07
2023-05-22T04:24:14.476Z,10.00
2023-05-22T04:26:42.671Z,10.50
2023-05-22T04:29:14.498Z,9.07
2023-05-22T04:31:42.216Z,9.13
2023-05-22T04:34:17.009Z,7.90
2023-05-22T04:36:45.221Z,11.10
2023-05-22T04:39:13.886Z,8.17
2023-05-22T04:41:41.108Z,8.20
2023-05-22T04:44:08.116Z,8.50
2023-05-22T04:46:35.999Z,8.30
2023-05-22T04:49:03.320Z,9.37
2023-05-22T04:51:34.860Z,10.07
2023-05-22T04:54:01.693Z,11.07
2023-05-22T04:56:35.995Z,11.97
2023-05-22T04:59:05.611Z,10.90
2023-05-22T05:01:35.079Z,12.53
2023-05-22T05:04:03.708Z,10.80
2023-05-22T05:06:30.796Z,9.90
2023-05-22T05:08:58.090Z,10.17
2023-05-22T05:11:25.002Z,9.97
2023-05-22T05:13:52.882Z,10.80
2023-05-22T05:16:19.693Z,10.00
2023-05-22T05:18:46.670Z,12.67
2023-05-22T05:21:13.720Z,10.40
2023-05-22T05:23:41.091Z,10.30
2023-05-22T05:26:07.906Z,13.40
2023-05-22T05:28:35.275Z,12.03
2023-05-22T05:31:02.922Z,11.23
2023-05-22T05:33:49.100Z,13.97
2023-05-22T05:36:30.267Z,12.50
2023-05-22T05:38:58.449Z,11.97
2023-05-22T05:41:26.974Z,12.93
2023-05-22T05:44:01.469Z,12.97
2023-05-22T05:46:31.187Z,11.80
2023-05-22T05:48:58.541Z,11.77
2023-05-22T05:51:25.461Z,9.77
2023-05-22T05:53:53.217Z,10.93
2023-05-22T05:56:21.232Z,9.77
2023-05-22T05:58:48.478Z,10.83
2023-05-22T06:01:54.023Z,11.13
2023-05-22T06:04:28.137Z,10.93
2023-05-22T06:06:55.059Z,12.93
2023-05-22T06:09:27.054Z,9.70
2023-05-22T06:12:12.912Z,9.93
2023-05-22T06:14:42.681Z,11.03
2023-05-22T06:17:10.039Z,9.70
2023-05-22T06:19:39.515Z,9.57
2023-05-22T06:22:06.706Z,8.70
2023-05-22T06:24:34.130Z,7.87
2023-05-22T06:27:06.824Z,8.33
2023-05-22T06:29:34.330Z,8.97
2023-05-22T06:32:01.191Z,8.77
2023-05-22T06:34:29.750Z,7.87
2023-05-22T06:36:58.544Z,12.00
2023-05-22T06:39:31.893Z,8.43
2023-05-22T06:42:13.862Z,7.13
2023-05-22T06:44:59.417Z,10.60
2023-05-22T06:47:34.923Z,9.17
2023-05-22T06:50:01.917Z,7.77
2023-05-22T06:52:28.949Z,9.03
2023-05-22T06:54:57.480Z,8.00
2023-05-22T06:57:24.603Z,9.33
2023-05-22T06:59:51.509Z,8.43
2023-05-22T07:02:44.024Z,6.57
2023-05-22T07:05:21.188Z,7.57
2023-05-22T07:07:57.037Z,7.78
2023-05-22T07:10:27.441Z,8.27
2023-05-22T07:12:54.648Z,8.20
2023-05-22T07:15:21.618Z,9.13
2023-05-22T07:17:52.544Z,7.55
2023-05-22T07:20:19.372Z,7.80
2023-05-22T07:22:58.526Z,9.13
2023-05-22T07:25:25.633Z,7.55
2023-05-22T07:27:52.628Z,7.22
2023-05-22T07:30:22.280Z,7.05
2023-05-22T07:32:49.598Z,7.00
2023-05-22T07:35:16.685Z,7.03
2023-05-22T07:37:44.042Z,8.77
2023-05-22T07:40:11.287Z,6.72
2023-05-22T07:42:38.400Z,7.35
2023-05-22T07:45:07.436Z,8.02
2023-05-22T07:47:34.345Z,7.00
2023-05-22T07:50:04.264Z,9.35
2023-05-22T07:52:32.842Z,7.65
2023-05-22T07:55:00.166Z,6.97
2023-05-22T07:57:29.804Z,6.97
2023-05-22T08:00:00.533Z,6.45
2023-05-22T08:02:27.583Z,6.88
2023-05-22T08:04:54.559Z,6.95
2023-05-22T08:07:21.359Z,7.88
2023-05-22T08:09:48.174Z,7.22
2023-05-22T08:12:14.975Z,11.27
2023-05-22T08:14:41.883Z,6.53
2023-05-22T08:17:08.700Z,7.20
2023-05-22T08:19:35.591Z,13.88
2023-05-22T08:22:02.371Z,9.93
2023-05-22T08:24:30.534Z,6.00
2023-05-22T08:26:58.618Z,7.10
2023-05-22T08:29:25.515Z,6.57
2023-05-22T08:31:53.900Z,9.07
2023-05-22T08:34:20.815Z,7.10
2023-05-22T08:36:49.004Z,7.78
2023-05-22T08:39:16.173Z,8.07
2023-05-22T08:41:43.857Z,6.97
2023-05-22T08:44:13.749Z,7.38
2023-05-22T08:46:41.858Z,8.93
2023-05-22T08:49:13.058Z,6.05
2023-05-22T08:51:42.295Z,6.55
2023-05-22T08:54:09.911Z,6.35
2023-05-22T08:56:39.681Z,6.18
2023-05-22T08:59:12.770Z,7.53
2023-05-22T09:01:39.909Z,6.85
2023-05-22T09:04:06.876Z,5.53
2023-05-22T09:06:33.778Z,6.85
2023-05-22T09:09:01.530Z,8.38
2023-05-22T09:11:28.339Z,7.97
2023-05-22T09:14:10.130Z,6.65
2023-05-22T09:16:52.802Z,6.05
2023-05-22T09:19:19.802Z,10.30
2023-05-22T09:21:48.069Z,7.13
2023-05-22T09:24:15.134Z,6.00
2023-05-22T09:26:42.198Z,7.70
2023-05-22T09:29:09.598Z,5.78
2023-05-22T09:31:44.049Z,5.88
2023-05-22T09:34:16.040Z,8.68
2023-05-22T09:36:43.487Z,6.82
2023-05-22T09:39:10.932Z,6.88
2023-05-22T09:41:39.943Z,6.30
2023-05-22T09:44:16.773Z,6.60
2023-05-22T09:46:47.798Z,7.63
2023-05-22T09:49:17.063Z,5.78
2023-05-22T09:51:48.360Z,7.55
2023-05-22T09:54:16.956Z,6.07
2023-05-22T09:56:44.724Z,7.30
2023-05-22T09:59:14.436Z,6.80
2023-05-22T10:01:42.593Z,8.30
2023-05-22T10:04:16.094Z,5.75
2023-05-22T10:06:45.196Z,9.02
2023-05-22T10:09:19.202Z,8.50
2023-05-22T10:11:47.499Z,6.65
2023-05-22T10:14:15.796Z,7.47
2023-05-22T10:16:44.941Z,8.57
2023-05-22T10:19:12.897Z,6.80
2023-05-22T10:21:41.629Z,8.13
2023-05-22T10:24:09.969Z,6.47
2023-05-22T10:26:37.586Z,6.38
2023-05-22T10:29:12.499Z,7.75
2023-05-22T10:31:58.138Z,7.18
2023-05-22T10:34:56.588Z,6.20
2023-05-22T10:37:53.272Z,7.75
2023-05-22T10:40:28.843Z,8.50
2023-05-22T10:42:59.720Z,6.10
2023-05-22T10:45:30.730Z,6.32
2023-05-22T10:48:04.803Z,6.72
2023-05-22T10:50:31.719Z,6.78
2023-05-22T10:53:28.033Z,5.97
2023-05-22T10:56:02.538Z,5.80
2023-05-22T10:58:30.962Z,5.75
2023-05-22T11:01:17.080Z,6.00
2023-05-22T11:03:58.762Z,7.18
2023-05-22T11:06:37.570Z,8.20
2023-05-22T11:09:32.352Z,6.85
2023-05-22T11:12:24.376Z,7.80
2023-05-22T11:14:55.220Z,7.65
2023-05-22T11:17:30.682Z,6.88
2023-05-22T11:20:05.829Z,7.03
2023-05-22T11:22:36.806Z,8.85
2023-05-22T11:25:07.537Z,6.97
2023-05-22T11:27:35.452Z,7.50
2023-05-22T11:30:02.750Z,6.78
2023-05-22T11:32:29.904Z,6.35
2023-05-22T11:34:57.705Z,6.13
2023-05-22T11:37:24.668Z,6.38
2023-05-22T11:40:04.694Z,6.38
2023-05-22T11:42:31.775Z,6.30
2023-05-22T11:44:59.054Z,5.78
2023-05-22T11:47:29.022Z,5.72
2023-05-22T11:49:59.961Z,5.40
2023-05-22T11:52:32.378Z,6.25
2023-05-22T11:54:59.842Z,6.00
2023-05-22T11:57:26.815Z,6.65
2023-05-22T11:59:53.925Z,6.93
2023-05-22T12:02:20.760Z,7.35
2023-05-22T12:04:47.598Z,6.25
2023-05-22T12:07:14.523Z,5.68
2023-05-22T12:09:42.464Z,8.43
2023-05-22T12:12:13.245Z,6.93
2023-05-22T12:14:45.092Z,6.20
2023-05-22T12:17:17.329Z,6.05
2023-05-22T12:19:47.158Z,5.90
2023-05-22T12:22:14.611Z,5.72
2023-05-22T12:24:46.011Z,5.53
2023-05-22T12:27:13.772Z,5.80
2023-05-22T12:29:41.739Z,5.97
2023-05-22T12:32:11.146Z,5.07
2023-05-22T12:34:47.990Z,5.15
2023-05-22T12:37:22.787Z,6.57
2023-05-22T12:40:00.482Z,5.25
2023-05-22T12:42:28.306Z,5.78
2023-05-22T12:44:57.243Z,4.90
2023-05-22T12:47:24.922Z,6.75
2023-05-22T12:49:52.107Z,4.72
2023-05-22T12:52:19.249Z,4.85
2023-05-22T12:54:46.153Z,4.78
2023-05-22T12:57:13.127Z,4.72
2023-05-22T12:59:41.156Z,4.82
2023-05-22T13:02:08.279Z,5.38
2023-05-22T13:04:35.318Z,6.68
2023-05-22T13:07:02.329Z,4.72
2023-05-22T13:09:29.227Z,7.13
2023-05-22T13:11:56.469Z,6.57
2023-05-22T13:14:23.361Z,5.80
2023-05-22T13:16:50.152Z,5.65
2023-05-22T13:19:17.090Z,6.82
2023-05-22T13:21:44.095Z,6.95
2023-05-22T13:24:11.016Z,6.10
2023-05-22T13:26:37.877Z,6.22
2023-05-22T13:29:04.919Z,6.00
2023-05-22T13:31:37.153Z,9.68
2023-05-22T13:34:04.688Z,4.65
2023-05-22T13:36:31.736Z,4.70
2023-05-22T13:38:58.587Z,6.90
2023-05-22T13:41:25.674Z,4.50
2023-05-22T13:43:52.522Z,4.72
2023-05-22T13:46:21.335Z,4.63
2023-05-22T13:48:48.223Z,6.20
2023-05-22T13:51:15.019Z,3.95
2023-05-22T13:53:42.188Z,8.15
2023-05-22T13:56:09.037Z,4.50
2023-05-22T13:58:35.827Z,4.22
2023-05-22T14:01:02.690Z,4.63
2023-05-22T14:03:29.554Z,4.97
2023-05-22T14:05:56.455Z,5.75
2023-05-22T14:08:24.206Z,5.40
2023-05-22T14:10:51.113Z,6.47
2023-05-22T14:13:18.000Z,3.92
2023-05-22T14:15:46.978Z,3.92
2023-05-22T14:18:16.349Z,3.88
2023-05-22T14:20:43.930Z,3.95
2023-05-22T14:23:11.725Z,3.53
2023-05-22T14:25:42.891Z,3.47
2023-05-22T14:28:10.541Z,3.50
2023-05-22T14:30:37.675Z,3.10
2023-05-22T14:33:05.063Z,3.50
2023-05-22T14:35:32.613Z,3.42
2023-05-22T14:37:59.523Z,4.68
2023-05-22T14:40:26.318Z,3.92
2023-05-22T14:42:54.372Z,4.90
2023-05-22T14:45:21.480Z,3.70
2023-05-22T14:47:48.411Z,4.18
2023-05-22T14:50:22.211Z,4.05
2023-05-22T14:52:49.752Z,4.05
2023-05-22T14:55:17.147Z,4.15
2023-05-22T14:57:44.075Z,3.63
2023-05-22T15:00:12.229Z,4.15
2023-05-22T15:02:40.400Z,5.70
2023-05-22T15:05:07.833Z,4.15
2023-05-22T15:07:44.208Z,4.60
2023-05-22T15:10:12.504Z,4.18
2023-05-22T15:12:39.358Z,4.55
2023-05-22T15:15:06.627Z,4.40
2023-05-22T15:17:33.478Z,4.30
2023-05-22T15:20:00.537Z,4.30
2023-05-22T15:22:28.656Z,5.57
2023-05-22T15:25:08.173Z,6.70
2023-05-22T15:27:35.892Z,6.32
2023-05-22T15:30:04.263Z,5.60
2023-05-22T15:32:34.348Z,4.80
2023-05-22T15:35:01.249Z,8.10
2023-05-22T15:37:32.222Z,4.68
2023-05-22T15:40:01.380Z,5.63
2023-05-22T15:42:28.419Z,6.30
2023-05-22T15:44:55.449Z,5.00
2023-05-22T15:47:22.414Z,6.10
2023-05-22T15:49:49.220Z,6.10
2023-05-22T15:52:16.357Z,5.60
2023-05-22T15:54:43.334Z,6.38
2023-05-22T15:57:10.103Z,8.57
2023-05-22T15:59:36.974Z,5.38
2023-05-22T16:02:04.068Z,6.40
2023-05-22T16:04:31.208Z,5.13
2023-05-22T16:06:58.016Z,6.30
2023-05-22T16:09:25.487Z,12.43
2023-05-22T16:11:52.377Z,7.05
2023-05-22T16:14:19.173Z,8.38
2023-05-22T16:16:46.013Z,8.75
2023-05-22T16:19:12.855Z,6.25
2023-05-22T16:21:39.811Z,6.45
2023-05-22T16:24:07.107Z,5.85
2023-05-22T16:26:34.127Z,5.68
2023-05-22T16:29:01.045Z,7.10
2023-05-22T16:31:28.700Z,5.70
2023-05-22T16:33:55.825Z,5.45
2023-05-22T16:36:23.285Z,6.45
2023-05-22T16:38:51.385Z,8.00
2023-05-22T16:41:18.243Z,5.90
2023-05-22T16:43:45.022Z,9.88
2023-05-22T16:46:11.902Z,5.18
2023-05-22T16:48:38.724Z,6.05
2023-05-22T16:51:05.567Z,6.78
2023-05-22T16:53:32.329Z,6.22
2023-05-22T16:55:59.823Z,7.40
2023-05-22T16:58:26.758Z,6.45
2023-05-22T17:00:53.743Z,5.25
2023-05-22T17:03:20.752Z,8.43
2023-05-22T17:05:48.016Z,6.28
2023-05-22T17:08:14.904Z,5.97
2023-05-22T17:10:41.758Z,4.72
2023-05-22T17:13:08.809Z,5.55
2023-05-22T17:15:35.769Z,5.10
2023-05-22T17:18:03.903Z,5.18
2023-05-22T17:20:34.102Z,7.45
2023-05-22T17:23:01.029Z,5.32
2023-05-22T17:25:27.929Z,5.97
2023-05-22T17:27:54.718Z,7.75
2023-05-22T17:30:21.607Z,6.25
2023-05-22T17:32:50.106Z,4.70
2023-05-22T17:35:16.937Z,7.85
2023-05-22T17:37:43.729Z,7.68
2023-05-22T17:40:10.784Z,8.57
2023-05-22T17:42:37.664Z,7.13
2023-05-22T17:45:04.893Z,6.28
2023-05-22T17:47:31.774Z,5.53
2023-05-22T17:49:58.558Z,8.05
2023-05-22T17:52:25.746Z,5.38
2023-05-22T17:54:52.846Z,6.53
2023-05-22T17:57:19.673Z,8.70
2023-05-22T17:59:46.492Z,8.15
2023-05-22T18:02:13.549Z,6.83
2023-05-22T18:04:40.650Z,7.67
2023-05-22T18:07:07.451Z,5.60
2023-05-22T18:09:34.283Z,6.00
2023-05-22T18:12:02.377Z,7.30
2023-05-22T18:14:29.385Z,8.63
2023-05-22T18:16:58.180Z,8.17
2023-05-22T18:19:25.012Z,5.77
2023-05-22T18:21:53.589Z,4.83
2023-05-22T18:24:25.089Z,6.00
2023-05-22T18:26:52.335Z,8.97
2023-05-22T18:29:19.200Z,5.23
2023-05-22T18:31:46.188Z,5.70
2023-05-22T18:34:13.635Z,5.30
2023-05-22T18:36:43.661Z,5.90
2023-05-22T18:39:11.663Z,6.57
2023-05-22T18:41:38.524Z,5.67
2023-05-22T18:44:05.410Z,4.90
2023-05-22T18:46:32.235Z,5.77
2023-05-22T18:48:59.128Z,7.70
2023-05-22T18:51:26.735Z,7.43
2023-05-22T18:53:53.715Z,6.90
2023-05-22T18:56:20.563Z,5.90
2023-05-22T18:58:47.379Z,4.93
2023-05-22T19:01:16.637Z,6.13
2023-05-22T19:03:43.539Z,5.90
2023-05-22T19:06:10.415Z,6.23
2023-05-22T19:08:37.221Z,8.70
2023-05-22T19:11:04.092Z,9.70
2023-05-22T19:13:31.571Z,7.57
2023-05-22T19:15:58.401Z,7.63
2023-05-22T19:18:27.331Z,9.67
2023-05-22T19:20:54.461Z,7.93
2023-05-22T19:23:21.452Z,5.93
2023-05-22T19:25:48.859Z,7.60
2023-05-22T19:28:16.264Z,7.93
2023-05-22T19:30:43.548Z,6.83
2023-05-22T19:33:11.160Z,6.37
2023-05-22T19:35:38.713Z,6.10
2023-05-22T19:38:06.040Z,7.97
2023-05-22T19:40:32.969Z,6.90
2023-05-22T19:43:01.289Z,6.20
2023-05-22T19:45:28.353Z,5.93
2023-05-22T19:47:56.216Z,6.63
2023-05-22T19:50:23.094Z,8.43
2023-05-22T19:52:49.960Z,7.37
2023-05-22T19:55:16.963Z,7.57
2023-05-22T19:57:44.755Z,5.67
2023-05-22T20:00:12.655Z,7.57
2023-05-22T20:02:40.469Z,6.53
2023-05-22T20:05:09.492Z,6.47
2023-05-22T20:07:36.561Z,6.73
2023-05-22T20:10:06.512Z,5.80
2023-05-22T20:12:34.220Z,6.27
2023-05-22T20:15:02.673Z,6.77
2023-05-22T20:17:30.101Z,8.80
2023-05-22T20:19:58.813Z,7.30
2023-05-22T20:22:26.592Z,7.17
2023-05-22T20:24:54.291Z,7.77
2023-05-22T20:27:21.220Z,7.93
2023-05-22T20:29:50.228Z,7.93
2023-05-22T20:32:17.149Z,9.07
2023-05-22T20:34:45.485Z,9.47
2023-05-22T20:37:13.811Z,7.53
2023-05-22T20:39:44.301Z,9.80
2023-05-22T20:42:13.041Z,6.90
2023-05-22T20:44:41.351Z,7.40
2023-05-22T20:47:11.262Z,7.03
2023-05-22T20:49:38.357Z,8.93
2023-05-22T20:52:05.779Z,6.60
2023-05-22T20:54:34.733Z,7.13
2023-05-22T20:57:02.018Z,11.10
2023-05-22T20:59:29.081Z,6.97
2023-05-22T21:01:59.272Z,10.27
2023-05-22T21:04:26.410Z,9.60
2023-05-22T21:06:53.294Z,7.57
2023-05-22T21:09:20.220Z,9.27
2023-05-22T21:11:47.159Z,6.90
2023-05-22T21:14:14.473Z,8.50
2023-05-22T21:16:41.320Z,5.90
2023-05-22T21:19:08.253Z,6.23
2023-05-22T21:21:36.329Z,6.80
2023-05-22T21:24:03.365Z,5.70
2023-05-22T21:26:30.362Z,5.73
2023-05-22T21:28:57.319Z,8.00
2023-05-22T21:31:24.170Z,6.87
2023-05-22T21:33:50.984Z,6.30
2023-05-22T21:36:17.842Z,8.60
2023-05-22T21:38:45.459Z,8.13
2023-05-22T21:41:12.831Z,7.87
2023-05-22T21:43:39.764Z,9.67
2023-05-22T21:46:06.638Z,10.30
2023-05-22T21:48:33.565Z,7.80
2023-05-22T21:51:00.415Z,9.37
2023-05-22T21:53:27.245Z,11.93
2023-05-22T21:55:54.019Z,10.23
2023-05-22T21:58:21.055Z,9.17
2023-05-22T22:00:47.866Z,7.67
2023-05-22T22:03:14.774Z,11.20
2023-05-22T22:05:41.696Z,8.00
2023-05-22T22:08:08.569Z,8.10
2023-05-22T22:10:35.683Z,7.37
2023-05-22T22:13:02.643Z,10.93
2023-05-22T22:15:29.718Z,9.37
2023-05-22T22:18:02.266Z,9.83
2023-05-22T22:20:44.421Z,8.30
2023-05-22T22:23:12.233Z,9.43
2023-05-22T22:25:39.393Z,8.93
2023-05-22T22:28:07.335Z,11.67
2023-05-22T22:30:35.156Z,9.43
2023-05-22T22:33:02.382Z,9.60
2023-05-22T22:35:29.406Z,9.90
2023-05-22T22:37:56.227Z,8.67
2023-05-22T22:40:24.711Z,9.03
2023-05-22T22:42:52.780Z,10.33
2023-05-22T22:45:19.634Z,8.23
2023-05-22T22:47:46.494Z,11.70
2023-05-22T22:50:13.347Z,10.10
2023-05-22T22:52:45.391Z,11.03
2023-05-22T22:55:12.592Z,9.27
2023-05-22T22:57:39.642Z,9.17
2023-05-22T23:00:08.326Z,9.80
2023-05-22T23:02:35.172Z,9.03
2023-05-22T23:05:02.199Z,10.53
2023-05-22T23:07:29.131Z,9.57
2023-05-22T23:09:56.079Z,13.83
2023-05-22T23:12:22.886Z,13.00
2023-05-22T23:14:53.584Z,13.97
2023-05-22T23:17:20.419Z,13.60
2023-05-22T23:19:47.232Z,14.03
2023-05-22T23:22:14.068Z,11.97
2023-05-22T23:24:40.819Z,13.43
2023-05-22T23:27:07.627Z,14.93
2023-05-22T23:29:34.415Z,12.07
2023-05-22T23:32:01.296Z,14.33
2023-05-22T23:34:28.165Z,13.40
2023-05-22T23:36:54.904Z,13.30
2023-05-22T23:39:21.693Z,15.17
2023-05-22T23:41:49.577Z,11.40
2023-05-22T23:44:16.359Z,11.73
2023-05-22T23:46:43.877Z,11.40
2023-05-22T23:49:10.912Z,13.43
2023-05-22T23:51:37.783Z,11.20
2023-05-22T23:54:04.729Z,11.20
2023-05-22T23:56:31.587Z,13.27
2023-05-22T23:58:58.726Z,12.63
